sensor_id;sensor_type;location;lat;lon;timestamp;P1;durP1;ratioP1;P2;durP2;ratioP2
71914;SDS011;60387;49.994;14.660;2022-08-16T00:01:54;9.30;;;4.15;;
71914;SDS011;60387;49.994;14.660;2022-08-16T00:04:28;8.70;;;4.03;;
71914;SDS011;60387;49.994;14.660;2022-08-16T00:07:01;9.30;;;4.38;;
71914;SDS011;60387;49.994;14.660;2022-08-16T00:09:35;10.03;;;5.07;;
71914;SDS011;60387;49.994;14.660;2022-08-16T00:12:09;8.80;;;4.40;;
71914;SDS011;60387;49.994;14.660;2022-08-16T00:14:42;8.65;;;4.18;;
71914;SDS011;60387;49.994;14.660;2022-08-16T00:17:15;8.50;;;4.43;;
71914;SDS011;60387;49.994;14.660;2022-08-16T00:19:48;9.03;;;4.33;;
71914;SDS011;60387;49.994;14.660;2022-08-16T00:22:22;9.00;;;4.47;;
71914;SDS011;60387;49.994;14.660;2022-08-16T00:24:56;8.63;;;4.40;;
71914;SDS011;60387;49.994;14.660;2022-08-16T00:27:29;8.03;;;3.63;;
71914;SDS011;60387;49.994;14.660;2022-08-16T00:30:03;10.73;;;4.57;;
71914;SDS011;60387;49.994;14.660;2022-08-16T00:32:40;9.05;;;3.72;;
71914;SDS011;60387;49.994;14.660;2022-08-16T00:35:18;8.97;;;4.10;;
71914;SDS011;60387;49.994;14.660;2022-08-16T00:37:54;7.95;;;3.30;;
71914;SDS011;60387;49.994;14.660;2022-08-16T00:43:22;8.60;;;3.80;;
71914;SDS011;60387;49.994;14.660;2022-08-16T00:46:12;8.40;;;3.72;;
71914;SDS011;60387;49.994;14.660;2022-08-16T00:48:52;8.00;;;3.72;;
71914;SDS011;60387;49.994;14.660;2022-08-16T00:51:25;8.57;;;3.70;;
71914;SDS011;60387;49.994;14.660;2022-08-16T00:53:59;7.50;;;3.55;;
71914;SDS011;60387;49.994;14.660;2022-08-16T00:56:35;8.57;;;3.93;;
71914;SDS011;60387;49.994;14.660;2022-08-16T00:59:11;8.38;;;3.75;;
71914;SDS011;60387;49.994;14.660;2022-08-16T01:01:45;8.18;;;3.63;;
71914;SDS011;60387;49.994;14.660;2022-08-16T01:04:20;8.23;;;3.60;;
71914;SDS011;60387;49.994;14.660;2022-08-16T01:06:57;9.23;;;4.10;;
71914;SDS011;60387;49.994;14.660;2022-08-16T01:09:32;7.67;;;3.17;;
71914;SDS011;60387;49.994;14.660;2022-08-16T01:12:08;7.60;;;3.40;;
71914;SDS011;60387;49.994;14.660;2022-08-16T01:14:44;8.40;;;4.20;;
71914;SDS011;60387;49.994;14.660;2022-08-16T01:17:22;8.57;;;3.70;;
71914;SDS011;60387;49.994;14.660;2022-08-16T01:19:59;8.82;;;3.85;;
71914;SDS011;60387;49.994;14.660;2022-08-16T01:25:39;8.00;;;3.58;;
71914;SDS011;60387;49.994;14.660;2022-08-16T01:28:17;8.55;;;3.45;;
71914;SDS011;60387;49.994;14.660;2022-08-16T01:30:53;8.43;;;3.75;;
71914;SDS011;60387;49.994;14.660;2022-08-16T01:33:28;8.13;;;3.67;;
71914;SDS011;60387;49.994;14.660;2022-08-16T01:36:03;8.17;;;3.80;;
71914;SDS011;60387;49.994;14.660;2022-08-16T01:38:44;7.77;;;3.50;;
71914;SDS011;60387;49.994;14.660;2022-08-16T01:41:21;8.13;;;3.60;;
71914;SDS011;60387;49.994;14.660;2022-08-16T01:43:56;8.75;;;3.63;;
71914;SDS011;60387;49.994;14.660;2022-08-16T01:49:24;8.50;;;3.80;;
71914;SDS011;60387;49.994;14.660;2022-08-16T01:52:02;9.75;;;4.13;;
71914;SDS011;60387;49.994;14.660;2022-08-16T01:54:38;9.85;;;3.65;;
71914;SDS011;60387;49.994;14.660;2022-08-16T01:57:11;7.93;;;3.60;;
71914;SDS011;60387;49.994;14.660;2022-08-16T01:59:44;7.60;;;3.63;;
71914;SDS011;60387;49.994;14.660;2022-08-16T02:02:18;8.97;;;4.00;;
71914;SDS011;60387;49.994;14.660;2022-08-16T02:04:51;9.53;;;4.07;;
71914;SDS011;60387;49.994;14.660;2022-08-16T02:07:25;8.57;;;3.60;;
71914;SDS011;60387;49.994;14.660;2022-08-16T02:09:59;7.57;;;3.40;;
71914;SDS011;60387;49.994;14.660;2022-08-16T02:12:32;7.72;;;3.63;;
71914;SDS011;60387;49.994;14.660;2022-08-16T02:15:06;8.13;;;3.40;;
71914;SDS011;60387;49.994;14.660;2022-08-16T02:17:39;7.80;;;3.60;;
71914;SDS011;60387;49.994;14.660;2022-08-16T02:20:13;8.57;;;3.63;;
71914;SDS011;60387;49.994;14.660;2022-08-16T02:22:46;10.60;;;3.63;;
71914;SDS011;60387;49.994;14.660;2022-08-16T02:25:20;7.63;;;3.53;;
71914;SDS011;60387;49.994;14.660;2022-08-16T02:27:53;6.70;;;3.40;;
71914;SDS011;60387;49.994;14.660;2022-08-16T02:30:28;8.48;;;3.63;;
71914;SDS011;60387;49.994;14.660;2022-08-16T02:33:03;8.35;;;3.63;;
71914;SDS011;60387;49.994;14.660;2022-08-16T02:35:37;7.50;;;3.63;;
71914;SDS011;60387;49.994;14.660;2022-08-16T02:38:10;8.20;;;3.37;;
71914;SDS011;60387;49.994;14.660;2022-08-16T02:40:44;9.37;;;3.60;;
71914;SDS011;60387;49.994;14.660;2022-08-16T02:43:17;7.03;;;3.17;;
71914;SDS011;60387;49.994;14.660;2022-08-16T02:45:50;7.47;;;3.40;;
71914;SDS011;60387;49.994;14.660;2022-08-16T02:48:24;7.73;;;3.53;;
71914;SDS011;60387;49.994;14.660;2022-08-16T02:50:59;8.55;;;3.70;;
71914;SDS011;60387;49.994;14.660;2022-08-16T02:53:36;7.60;;;3.25;;
71914;SDS011;60387;49.994;14.660;2022-08-16T02:56:13;8.07;;;3.45;;
71914;SDS011;60387;49.994;14.660;2022-08-16T02:58:48;8.23;;;3.53;;
71914;SDS011;60387;49.994;14.660;2022-08-16T03:01:25;8.53;;;3.37;;
71914;SDS011;60387;49.994;14.660;2022-08-16T03:04:01;8.32;;;3.88;;
71914;SDS011;60387;49.994;14.660;2022-08-16T03:06:36;7.68;;;3.60;;
71914;SDS011;60387;49.994;14.660;2022-08-16T03:09:09;8.40;;;3.43;;
71914;SDS011;60387;49.994;14.660;2022-08-16T03:11:43;7.75;;;3.47;;
71914;SDS011;60387;49.994;14.660;2022-08-16T03:14:16;7.87;;;3.10;;
71914;SDS011;60387;49.994;14.660;2022-08-16T03:16:50;8.53;;;3.50;;
71914;SDS011;60387;49.994;14.660;2022-08-16T03:19:23;8.53;;;3.53;;
71914;SDS011;60387;49.994;14.660;2022-08-16T03:21:57;7.83;;;3.63;;
71914;SDS011;60387;49.994;14.660;2022-08-16T03:24:30;7.37;;;3.23;;
71914;SDS011;60387;49.994;14.660;2022-08-16T03:27:04;10.23;;;4.07;;
71914;SDS011;60387;49.994;14.660;2022-08-16T03:29:37;7.50;;;3.47;;
71914;SDS011;60387;49.994;14.660;2022-08-16T03:32:10;9.10;;;3.87;;
71914;SDS011;60387;49.994;14.660;2022-08-16T03:34:44;7.97;;;3.50;;
71914;SDS011;60387;49.994;14.660;2022-08-16T03:37:17;7.73;;;3.07;;
71914;SDS011;60387;49.994;14.660;2022-08-16T03:39:50;6.93;;;3.23;;
71914;SDS011;60387;49.994;14.660;2022-08-16T03:42:23;7.40;;;3.50;;
71914;SDS011;60387;49.994;14.660;2022-08-16T03:44:57;7.83;;;3.50;;
71914;SDS011;60387;49.994;14.660;2022-08-16T03:47:31;7.73;;;3.70;;
71914;SDS011;60387;49.994;14.660;2022-08-16T03:50:05;7.10;;;3.35;;
71914;SDS011;60387;49.994;14.660;2022-08-16T03:52:40;8.00;;;3.40;;
71914;SDS011;60387;49.994;14.660;2022-08-16T03:55:14;8.07;;;3.28;;
71914;SDS011;60387;49.994;14.660;2022-08-16T03:57:48;8.20;;;3.50;;
71914;SDS011;60387;49.994;14.660;2022-08-16T04:00:26;8.27;;;3.60;;
71914;SDS011;60387;49.994;14.660;2022-08-16T04:03:02;8.70;;;3.72;;
71914;SDS011;60387;49.994;14.660;2022-08-16T04:05:38;7.35;;;3.05;;
71914;SDS011;60387;49.994;14.660;2022-08-16T04:08:14;6.85;;;2.80;;
71914;SDS011;60387;49.994;14.660;2022-08-16T04:10:47;7.27;;;2.90;;
71914;SDS011;60387;49.994;14.660;2022-08-16T04:13:22;9.02;;;3.28;;
71914;SDS011;60387;49.994;14.660;2022-08-16T04:15:56;6.83;;;3.00;;
71914;SDS011;60387;49.994;14.660;2022-08-16T04:18:29;6.17;;;2.87;;
71914;SDS011;60387;49.994;14.660;2022-08-16T04:21:02;7.20;;;2.80;;
71914;SDS011;60387;49.994;14.660;2022-08-16T04:23:36;6.75;;;3.05;;
71914;SDS011;60387;49.994;14.660;2022-08-16T04:26:09;6.67;;;2.70;;
71914;SDS011;60387;49.994;14.660;2022-08-16T04:28:42;7.23;;;2.90;;
71914;SDS011;60387;49.994;14.660;2022-08-16T04:31:16;6.93;;;2.70;;
71914;SDS011;60387;49.994;14.660;2022-08-16T04:33:49;6.50;;;2.70;;
71914;SDS011;60387;49.994;14.660;2022-08-16T04:36:22;7.30;;;2.63;;
71914;SDS011;60387;49.994;14.660;2022-08-16T04:38:55;8.00;;;2.63;;
71914;SDS011;60387;49.994;14.660;2022-08-16T04:41:29;6.60;;;2.80;;
71914;SDS011;60387;49.994;14.660;2022-08-16T04:44:02;9.03;;;2.70;;
71914;SDS011;60387;49.994;14.660;2022-08-16T04:46:35;6.40;;;2.43;;
71914;SDS011;60387;49.994;14.660;2022-08-16T04:49:09;5.60;;;2.60;;
71914;SDS011;60387;49.994;14.660;2022-08-16T04:51:42;7.80;;;3.13;;
71914;SDS011;60387;49.994;14.660;2022-08-16T04:54:15;6.47;;;2.60;;
71914;SDS011;60387;49.994;14.660;2022-08-16T04:56:49;5.53;;;2.50;;
71914;SDS011;60387;49.994;14.660;2022-08-16T04:59:23;5.93;;;2.70;;
71914;SDS011;60387;49.994;14.660;2022-08-16T05:01:56;5.63;;;2.57;;
71914;SDS011;60387;49.994;14.660;2022-08-16T05:04:29;6.07;;;2.40;;
71914;SDS011;60387;49.994;14.660;2022-08-16T05:07:02;6.40;;;2.97;;
71914;SDS011;60387;49.994;14.660;2022-08-16T05:09:36;8.13;;;2.60;;
71914;SDS011;60387;49.994;14.660;2022-08-16T05:12:09;7.17;;;2.50;;
71914;SDS011;60387;49.994;14.660;2022-08-16T05:14:42;6.57;;;2.53;;
71914;SDS011;60387;49.994;14.660;2022-08-16T05:17:16;9.23;;;2.90;;
71914;SDS011;60387;49.994;14.660;2022-08-16T05:19:49;6.90;;;2.70;;
71914;SDS011;60387;49.994;14.660;2022-08-16T05:22:22;5.63;;;2.42;;
71914;SDS011;60387;49.994;14.660;2022-08-16T05:24:56;6.23;;;2.17;;
71914;SDS011;60387;49.994;14.660;2022-08-16T05:27:29;5.87;;;2.27;;
71914;SDS011;60387;49.994;14.660;2022-08-16T05:30:04;5.67;;;2.60;;
71914;SDS011;60387;49.994;14.660;2022-08-16T05:32:38;5.32;;;2.50;;
71914;SDS011;60387;49.994;14.660;2022-08-16T05:35:13;6.53;;;2.65;;
71914;SDS011;60387;49.994;14.660;2022-08-16T05:37:47;7.57;;;2.40;;
71914;SDS011;60387;49.994;14.660;2022-08-16T05:40:20;6.73;;;2.50;;
71914;SDS011;60387;49.994;14.660;2022-08-16T05:42:53;7.97;;;4.57;;
71914;SDS011;60387;49.994;14.660;2022-08-16T05:45:27;6.00;;;2.80;;
71914;SDS011;60387;49.994;14.660;2022-08-16T05:48:00;5.73;;;2.47;;
71914;SDS011;60387;49.994;14.660;2022-08-16T05:50:34;5.23;;;2.07;;
71914;SDS011;60387;49.994;14.660;2022-08-16T05:53:07;6.13;;;2.40;;
71914;SDS011;60387;49.994;14.660;2022-08-16T05:55:40;4.70;;;2.10;;
71914;SDS011;60387;49.994;14.660;2022-08-16T05:58:14;6.10;;;2.23;;
71914;SDS011;60387;49.994;14.660;2022-08-16T06:00:47;5.20;;;2.20;;
71914;SDS011;60387;49.994;14.660;2022-08-16T06:03:20;4.70;;;1.93;;
71914;SDS011;60387;49.994;14.660;2022-08-16T06:05:54;7.73;;;2.00;;
71914;SDS011;60387;49.994;14.660;2022-08-16T06:08:27;5.65;;;1.98;;
71914;SDS011;60387;49.994;14.660;2022-08-16T06:11:01;6.70;;;2.10;;
71914;SDS011;60387;49.994;14.660;2022-08-16T06:13:34;4.77;;;2.10;;
71914;SDS011;60387;49.994;14.660;2022-08-16T06:16:08;5.13;;;1.90;;
71914;SDS011;60387;49.994;14.660;2022-08-16T06:18:41;5.17;;;1.80;;
71914;SDS011;60387;49.994;14.660;2022-08-16T06:21:14;4.30;;;2.00;;
71914;SDS011;60387;49.994;14.660;2022-08-16T06:23:48;5.90;;;2.40;;
71914;SDS011;60387;49.994;14.660;2022-08-16T06:26:22;6.75;;;1.95;;
71914;SDS011;60387;49.994;14.660;2022-08-16T06:28:55;6.73;;;2.60;;
71914;SDS011;60387;49.994;14.660;2022-08-16T06:31:28;7.63;;;2.10;;
71914;SDS011;60387;49.994;14.660;2022-08-16T06:34:02;7.63;;;2.17;;
71914;SDS011;60387;49.994;14.660;2022-08-16T06:36:35;6.30;;;2.20;;
71914;SDS011;60387;49.994;14.660;2022-08-16T06:39:08;5.13;;;2.00;;
71914;SDS011;60387;49.994;14.660;2022-08-16T06:41:42;5.70;;;2.10;;
71914;SDS011;60387;49.994;14.660;2022-08-16T06:44:15;4.77;;;1.97;;
71914;SDS011;60387;49.994;14.660;2022-08-16T06:46:48;7.93;;;2.47;;
71914;SDS011;60387;49.994;14.660;2022-08-16T06:49:22;6.40;;;1.80;;
71914;SDS011;60387;49.994;14.660;2022-08-16T06:51:56;6.30;;;2.15;;
71914;SDS011;60387;49.994;14.660;2022-08-16T06:54:29;7.47;;;2.10;;
71914;SDS011;60387;49.994;14.660;2022-08-16T06:57:02;7.63;;;2.10;;
71914;SDS011;60387;49.994;14.660;2022-08-16T06:59:36;11.13;;;2.27;;
71914;SDS011;60387;49.994;14.660;2022-08-16T07:02:09;8.88;;;2.10;;
71914;SDS011;60387;49.994;14.660;2022-08-16T07:04:43;5.70;;;2.40;;
71914;SDS011;60387;49.994;14.660;2022-08-16T07:07:16;5.37;;;2.00;;
71914;SDS011;60387;49.994;14.660;2022-08-16T07:09:49;6.53;;;2.20;;
71914;SDS011;60387;49.994;14.660;2022-08-16T07:12:23;5.37;;;1.97;;
71914;SDS011;60387;49.994;14.660;2022-08-16T07:14:56;4.60;;;1.77;;
71914;SDS011;60387;49.994;14.660;2022-08-16T07:17:29;4.50;;;2.10;;
71914;SDS011;60387;49.994;14.660;2022-08-16T07:20:06;4.32;;;1.98;;
71914;SDS011;60387;49.994;14.660;2022-08-16T07:22:40;5.67;;;1.87;;
71914;SDS011;60387;49.994;14.660;2022-08-16T07:25:14;4.85;;;1.80;;
71914;SDS011;60387;49.994;14.660;2022-08-16T07:27:47;5.23;;;2.00;;
71914;SDS011;60387;49.994;14.660;2022-08-16T07:30:21;6.07;;;1.80;;
71914;SDS011;60387;49.994;14.660;2022-08-16T07:32:55;5.43;;;2.20;;
71914;SDS011;60387;49.994;14.660;2022-08-16T07:35:28;6.15;;;2.10;;
71914;SDS011;60387;49.994;14.660;2022-08-16T07:38:02;7.30;;;2.23;;
71914;SDS011;60387;49.994;14.660;2022-08-16T07:40:36;6.13;;;2.10;;
71914;SDS011;60387;49.994;14.660;2022-08-16T07:43:09;5.53;;;1.83;;
71914;SDS011;60387;49.994;14.660;2022-08-16T07:45:43;7.57;;;2.10;;
71914;SDS011;60387;49.994;14.660;2022-08-16T07:48:16;7.80;;;2.43;;
71914;SDS011;60387;49.994;14.660;2022-08-16T07:50:50;6.03;;;2.30;;
71914;SDS011;60387;49.994;14.660;2022-08-16T07:53:25;6.30;;;2.20;;
71914;SDS011;60387;49.994;14.660;2022-08-16T07:56:02;5.80;;;2.08;;
71914;SDS011;60387;49.994;14.660;2022-08-16T07:58:35;7.13;;;2.50;;
71914;SDS011;60387;49.994;14.660;2022-08-16T08:01:08;5.93;;;2.30;;
71914;SDS011;60387;49.994;14.660;2022-08-16T08:03:42;9.50;;;2.47;;
71914;SDS011;60387;49.994;14.660;2022-08-16T08:06:17;8.40;;;2.40;;
71914;SDS011;60387;49.994;14.660;2022-08-16T08:08:52;5.57;;;2.10;;
71914;SDS011;60387;49.994;14.660;2022-08-16T08:11:26;3.20;;;1.70;;
71914;SDS011;60387;49.994;14.660;2022-08-16T08:14:01;5.05;;;2.40;;
71914;SDS011;60387;49.994;14.660;2022-08-16T08:16:35;5.88;;;2.20;;
71914;SDS011;60387;49.994;14.660;2022-08-16T08:19:08;4.27;;;2.30;;
71914;SDS011;60387;49.994;14.660;2022-08-16T08:21:42;6.00;;;2.40;;
71914;SDS011;60387;49.994;14.660;2022-08-16T08:24:15;5.32;;;2.33;;
71914;SDS011;60387;49.994;14.660;2022-08-16T08:26:49;6.27;;;2.27;;
71914;SDS011;60387;49.994;14.660;2022-08-16T08:29:22;8.37;;;2.43;;
71914;SDS011;60387;49.994;14.660;2022-08-16T08:31:55;4.87;;;2.27;;
71914;SDS011;60387;49.994;14.660;2022-08-16T08:34:29;4.77;;;2.20;;
71914;SDS011;60387;49.994;14.660;2022-08-16T08:37:02;5.40;;;2.20;;
71914;SDS011;60387;49.994;14.660;2022-08-16T08:39:35;8.03;;;2.70;;
71914;SDS011;60387;49.994;14.660;2022-08-16T08:42:09;6.23;;;2.30;;
71914;SDS011;60387;49.994;14.660;2022-08-16T08:44:42;4.87;;;2.40;;
71914;SDS011;60387;49.994;14.660;2022-08-16T08:47:15;5.70;;;2.53;;
71914;SDS011;60387;49.994;14.660;2022-08-16T08:49:49;8.57;;;2.75;;
71914;SDS011;60387;49.994;14.660;2022-08-16T08:52:22;6.60;;;2.50;;
71914;SDS011;60387;49.994;14.660;2022-08-16T08:54:55;8.33;;;2.93;;
71914;SDS011;60387;49.994;14.660;2022-08-16T08:57:29;5.40;;;2.70;;
71914;SDS011;60387;49.994;14.660;2022-08-16T09:00:03;6.20;;;2.70;;
71914;SDS011;60387;49.994;14.660;2022-08-16T09:02:37;7.82;;;2.38;;
71914;SDS011;60387;49.994;14.660;2022-08-16T09:05:13;6.70;;;2.63;;
71914;SDS011;60387;49.994;14.660;2022-08-16T09:07:51;6.13;;;2.63;;
71914;SDS011;60387;49.994;14.660;2022-08-16T09:10:25;8.43;;;3.28;;
71914;SDS011;60387;49.994;14.660;2022-08-16T09:12:58;7.57;;;3.03;;
71914;SDS011;60387;49.994;14.660;2022-08-16T09:15:32;6.10;;;2.80;;
71914;SDS011;60387;49.994;14.660;2022-08-16T09:18:05;6.13;;;3.00;;
71914;SDS011;60387;49.994;14.660;2022-08-16T09:20:39;7.57;;;2.77;;
71914;SDS011;60387;49.994;14.660;2022-08-16T09:23:12;5.90;;;2.93;;
71914;SDS011;60387;49.994;14.660;2022-08-16T09:25:46;5.78;;;2.30;;
71914;SDS011;60387;49.994;14.660;2022-08-16T09:28:20;7.80;;;2.40;;
71914;SDS011;60387;49.994;14.660;2022-08-16T09:30:54;5.53;;;2.22;;
71914;SDS011;60387;49.994;14.660;2022-08-16T09:33:27;5.30;;;2.70;;
71914;SDS011;60387;49.994;14.660;2022-08-16T09:36:00;5.13;;;2.70;;
71914;SDS011;60387;49.994;14.660;2022-08-16T09:38:34;4.50;;;2.05;;
71914;SDS011;60387;49.994;14.660;2022-08-16T09:41:08;4.37;;;2.07;;
71914;SDS011;60387;49.994;14.660;2022-08-16T09:43:42;5.50;;;2.20;;
71914;SDS011;60387;49.994;14.660;2022-08-16T09:46:16;5.83;;;2.37;;
71914;SDS011;60387;49.994;14.660;2022-08-16T09:48:49;6.60;;;2.45;;
71914;SDS011;60387;49.994;14.660;2022-08-16T09:51:23;4.93;;;2.60;;
71914;SDS011;60387;49.994;14.660;2022-08-16T09:53:57;5.87;;;2.37;;
71914;SDS011;60387;49.994;14.660;2022-08-16T09:56:31;5.00;;;2.30;;
71914;SDS011;60387;49.994;14.660;2022-08-16T09:59:07;4.60;;;2.30;;
71914;SDS011;60387;49.994;14.660;2022-08-16T10:01:41;4.25;;;2.22;;
71914;SDS011;60387;49.994;14.660;2022-08-16T10:04:14;5.18;;;2.63;;
71914;SDS011;60387;49.994;14.660;2022-08-16T10:06:49;6.03;;;2.27;;
71914;SDS011;60387;49.994;14.660;2022-08-16T10:09:22;5.53;;;2.30;;
71914;SDS011;60387;49.994;14.660;2022-08-16T10:11:55;5.07;;;2.03;;
71914;SDS011;60387;49.994;14.660;2022-08-16T10:14:28;5.10;;;2.07;;
71914;SDS011;60387;49.994;14.660;2022-08-16T10:17:03;5.33;;;2.50;;
71914;SDS011;60387;49.994;14.660;2022-08-16T10:19:37;4.88;;;2.22;;
71914;SDS011;60387;49.994;14.660;2022-08-16T10:22:10;4.43;;;2.00;;
71914;SDS011;60387;49.994;14.660;2022-08-16T10:24:43;5.47;;;2.27;;
71914;SDS011;60387;49.994;14.660;2022-08-16T10:27:16;6.83;;;2.33;;
71914;SDS011;60387;49.994;14.660;2022-08-16T10:29:50;5.53;;;2.30;;
71914;SDS011;60387;49.994;14.660;2022-08-16T10:32:23;6.17;;;2.00;;
71914;SDS011;60387;49.994;14.660;2022-08-16T10:34:56;4.53;;;2.10;;
71914;SDS011;60387;49.994;14.660;2022-08-16T10:37:30;4.77;;;2.20;;
71914;SDS011;60387;49.994;14.660;2022-08-16T10:40:04;6.20;;;2.28;;
71914;SDS011;60387;49.994;14.660;2022-08-16T10:42:40;4.78;;;1.90;;
71914;SDS011;60387;49.994;14.660;2022-08-16T10:45:14;5.70;;;2.10;;
71914;SDS011;60387;49.994;14.660;2022-08-16T10:47:48;6.35;;;2.00;;
71914;SDS011;60387;49.994;14.660;2022-08-16T10:50:21;4.13;;;1.80;;
71914;SDS011;60387;49.994;14.660;2022-08-16T10:52:55;3.90;;;2.10;;
71914;SDS011;60387;49.994;14.660;2022-08-16T10:55:28;6.43;;;2.60;;
71914;SDS011;60387;49.994;14.660;2022-08-16T10:58:03;5.37;;;1.90;;
71914;SDS011;60387;49.994;14.660;2022-08-16T11:00:37;4.78;;;1.70;;
71914;SDS011;60387;49.994;14.660;2022-08-16T11:03:12;4.65;;;1.92;;
71914;SDS011;60387;49.994;14.660;2022-08-16T11:05:46;5.20;;;2.10;;
71914;SDS011;60387;49.994;14.660;2022-08-16T11:08:19;4.90;;;2.30;;
71914;SDS011;60387;49.994;14.660;2022-08-16T11:10:53;6.07;;;2.20;;
71914;SDS011;60387;49.994;14.660;2022-08-16T11:13:26;4.63;;;1.90;;
71914;SDS011;60387;49.994;14.660;2022-08-16T11:15:59;5.47;;;2.07;;
71914;SDS011;60387;49.994;14.660;2022-08-16T11:18:33;3.47;;;1.95;;
71914;SDS011;60387;49.994;14.660;2022-08-16T11:21:06;4.03;;;1.87;;
71914;SDS011;60387;49.994;14.660;2022-08-16T11:23:40;5.97;;;2.20;;
71914;SDS011;60387;49.994;14.660;2022-08-16T11:26:13;5.90;;;2.07;;
71914;SDS011;60387;49.994;14.660;2022-08-16T11:28:47;4.63;;;2.23;;
71914;SDS011;60387;49.994;14.660;2022-08-16T11:31:20;5.00;;;2.00;;
71914;SDS011;60387;49.994;14.660;2022-08-16T11:33:53;5.40;;;2.10;;
71914;SDS011;60387;49.994;14.660;2022-08-16T11:36:27;3.83;;;1.70;;
71914;SDS011;60387;49.994;14.660;2022-08-16T11:39:00;4.47;;;2.10;;
71914;SDS011;60387;49.994;14.660;2022-08-16T11:41:33;5.73;;;2.17;;
71914;SDS011;60387;49.994;14.660;2022-08-16T11:44:07;4.65;;;1.85;;
71914;SDS011;60387;49.994;14.660;2022-08-16T11:46:40;4.67;;;2.10;;
71914;SDS011;60387;49.994;14.660;2022-08-16T11:49:13;4.73;;;2.23;;
71914;SDS011;60387;49.994;14.660;2022-08-16T11:51:47;5.30;;;2.13;;
71914;SDS011;60387;49.994;14.660;2022-08-16T11:54:20;6.07;;;2.40;;
71914;SDS011;60387;49.994;14.660;2022-08-16T11:56:54;4.90;;;2.10;;
71914;SDS011;60387;49.994;14.660;2022-08-16T11:59:27;4.90;;;2.23;;
71914;SDS011;60387;49.994;14.660;2022-08-16T12:02:00;5.67;;;2.10;;
71914;SDS011;60387;49.994;14.660;2022-08-16T12:04:34;3.93;;;1.80;;
71914;SDS011;60387;49.994;14.660;2022-08-16T12:07:07;5.77;;;2.00;;
71914;SDS011;60387;49.994;14.660;2022-08-16T12:09:41;4.80;;;2.40;;
71914;SDS011;60387;49.994;14.660;2022-08-16T12:12:14;4.10;;;1.93;;
71914;SDS011;60387;49.994;14.660;2022-08-16T12:14:47;4.87;;;2.27;;
71914;SDS011;60387;49.994;14.660;2022-08-16T12:17:21;5.73;;;2.60;;
71914;SDS011;60387;49.994;14.660;2022-08-16T12:19:54;5.20;;;2.10;;
71914;SDS011;60387;49.994;14.660;2022-08-16T12:22:27;4.83;;;2.13;;
71914;SDS011;60387;49.994;14.660;2022-08-16T12:25:01;4.67;;;2.03;;
71914;SDS011;60387;49.994;14.660;2022-08-16T12:27:36;3.22;;;1.92;;
71914;SDS011;60387;49.994;14.660;2022-08-16T12:30:10;4.53;;;2.20;;
71914;SDS011;60387;49.994;14.660;2022-08-16T12:32:45;3.88;;;1.73;;
71914;SDS011;60387;49.994;14.660;2022-08-16T12:35:19;4.93;;;2.03;;
71914;SDS011;60387;49.994;14.660;2022-08-16T12:37:54;3.92;;;2.35;;
71914;SDS011;60387;49.994;14.660;2022-08-16T12:40:33;4.43;;;1.90;;
71914;SDS011;60387;49.994;14.660;2022-08-16T12:43:09;4.82;;;1.90;;
71914;SDS011;60387;49.994;14.660;2022-08-16T12:45:45;3.75;;;1.70;;
71914;SDS011;60387;49.994;14.660;2022-08-16T12:48:22;3.80;;;1.90;;
71914;SDS011;60387;49.994;14.660;2022-08-16T12:50:58;4.80;;;2.20;;
71914;SDS011;60387;49.994;14.660;2022-08-16T12:53:31;3.85;;;1.88;;
71914;SDS011;60387;49.994;14.660;2022-08-16T12:56:05;5.03;;;2.00;;
71914;SDS011;60387;49.994;14.660;2022-08-16T12:58:40;5.30;;;2.10;;
71914;SDS011;60387;49.994;14.660;2022-08-16T13:01:14;4.15;;;1.92;;
71914;SDS011;60387;49.994;14.660;2022-08-16T13:03:47;5.17;;;1.67;;
71914;SDS011;60387;49.994;14.660;2022-08-16T13:06:21;4.10;;;1.90;;
71914;SDS011;60387;49.994;14.660;2022-08-16T13:08:55;5.40;;;2.33;;
71914;SDS011;60387;49.994;14.660;2022-08-16T13:11:32;4.57;;;1.63;;
71914;SDS011;60387;49.994;14.660;2022-08-16T13:14:07;4.63;;;2.15;;
71914;SDS011;60387;49.994;14.660;2022-08-16T13:16:43;3.78;;;1.80;;
71914;SDS011;60387;49.994;14.660;2022-08-16T13:19:16;5.17;;;2.10;;
71914;SDS011;60387;49.994;14.660;2022-08-16T13:21:50;4.33;;;1.83;;
71914;SDS011;60387;49.994;14.660;2022-08-16T13:24:23;4.60;;;2.07;;
71914;SDS011;60387;49.994;14.660;2022-08-16T13:26:56;5.03;;;1.70;;
71914;SDS011;60387;49.994;14.660;2022-08-16T13:29:30;5.00;;;2.17;;
71914;SDS011;60387;49.994;14.660;2022-08-16T13:32:03;4.07;;;2.10;;
71914;SDS011;60387;49.994;14.660;2022-08-16T13:34:38;5.47;;;2.00;;
71914;SDS011;60387;49.994;14.660;2022-08-16T13:37:11;5.00;;;1.90;;
71914;SDS011;60387;49.994;14.660;2022-08-16T13:39:44;4.10;;;1.70;;
71914;SDS011;60387;49.994;14.660;2022-08-16T13:42:26;4.63;;;1.93;;
71914;SDS011;60387;49.994;14.660;2022-08-16T13:45:00;3.90;;;2.10;;
71914;SDS011;60387;49.994;14.660;2022-08-16T13:47:33;4.57;;;1.90;;
71914;SDS011;60387;49.994;14.660;2022-08-16T13:50:07;4.43;;;1.83;;
71914;SDS011;60387;49.994;14.660;2022-08-16T13:52:42;4.90;;;1.67;;
71914;SDS011;60387;49.994;14.660;2022-08-16T13:55:15;5.03;;;1.93;;
71914;SDS011;60387;49.994;14.660;2022-08-16T13:57:48;4.87;;;2.00;;
71914;SDS011;60387;49.994;14.660;2022-08-16T14:00:22;4.03;;;1.60;;
71914;SDS011;60387;49.994;14.660;2022-08-16T14:02:55;4.13;;;1.60;;
71914;SDS011;60387;49.994;14.660;2022-08-16T14:05:28;4.53;;;2.00;;
71914;SDS011;60387;49.994;14.660;2022-08-16T14:08:02;3.67;;;1.88;;
71914;SDS011;60387;49.994;14.660;2022-08-16T14:10:35;4.50;;;1.70;;
71914;SDS011;60387;49.994;14.660;2022-08-16T14:13:09;3.97;;;2.13;;
71914;SDS011;60387;49.994;14.660;2022-08-16T14:15:42;4.10;;;1.93;;
71914;SDS011;60387;49.994;14.660;2022-08-16T14:18:15;3.60;;;1.70;;
71914;SDS011;60387;49.994;14.660;2022-08-16T14:20:49;3.67;;;1.75;;
71914;SDS011;60387;49.994;14.660;2022-08-16T14:23:22;3.87;;;1.70;;
71914;SDS011;60387;49.994;14.660;2022-08-16T14:25:56;4.60;;;1.70;;
71914;SDS011;60387;49.994;14.660;2022-08-16T14:28:29;4.70;;;1.88;;
71914;SDS011;60387;49.994;14.660;2022-08-16T14:31:03;5.17;;;2.10;;
71914;SDS011;60387;49.994;14.660;2022-08-16T14:33:36;4.50;;;1.83;;
71914;SDS011;60387;49.994;14.660;2022-08-16T14:36:09;4.53;;;1.90;;
71914;SDS011;60387;49.994;14.660;2022-08-16T14:38:43;5.10;;;2.28;;
71914;SDS011;60387;49.994;14.660;2022-08-16T14:41:17;4.43;;;2.00;;
71914;SDS011;60387;49.994;14.660;2022-08-16T14:43:50;3.97;;;1.80;;
71914;SDS011;60387;49.994;14.660;2022-08-16T14:46:26;4.40;;;2.10;;
71914;SDS011;60387;49.994;14.660;2022-08-16T14:49:00;4.47;;;2.20;;
71914;SDS011;60387;49.994;14.660;2022-08-16T14:51:33;4.57;;;1.80;;
71914;SDS011;60387;49.994;14.660;2022-08-16T14:54:06;4.73;;;2.07;;
71914;SDS011;60387;49.994;14.660;2022-08-16T14:56:40;4.47;;;1.90;;
71914;SDS011;60387;49.994;14.660;2022-08-16T14:59:13;4.90;;;2.00;;
71914;SDS011;60387;49.994;14.660;2022-08-16T15:01:47;5.10;;;2.00;;
71914;SDS011;60387;49.994;14.660;2022-08-16T15:04:20;4.83;;;1.83;;
71914;SDS011;60387;49.994;14.660;2022-08-16T15:06:54;3.78;;;1.80;;
71914;SDS011;60387;49.994;14.660;2022-08-16T15:09:27;4.10;;;2.00;;
71914;SDS011;60387;49.994;14.660;2022-08-16T15:12:07;5.50;;;1.70;;
71914;SDS011;60387;49.994;14.660;2022-08-16T15:14:44;4.13;;;1.80;;
71914;SDS011;60387;49.994;14.660;2022-08-16T15:17:18;4.32;;;2.17;;
71914;SDS011;60387;49.994;14.660;2022-08-16T15:19:53;5.03;;;2.15;;
71914;SDS011;60387;49.994;14.660;2022-08-16T15:22:28;4.70;;;2.10;;